Time;durP1;ratioP1;P1;durP2;ratioP2;P2;SDS_P1;SDS_P2;PMS_P1;PMS_P2;Temp;Humidity;BMP_temperature;BMP_pressure;BME280_temperature;BME280_humidity;BME280_pressure;Samples;Min_cycle;Max_cycle;Signal;HPM_P1;HPM_P2
2021/11/07 00:06:18;;;;;;;119.75;55.78;;;;;;;;;;143751;603;46010;-55
2021/11/07 00:08:58;;;;;;;79.22;39.42;;;;;;;;;;143737;677;46020;-55
2021/11/07 00:14:19;;;;;;;78.93;40.00;;;;;;;;;;143751;666;44918;-55
2021/11/07 00:16:47;;;;;;;80.50;40.15;;;;;;;;;;143748;602;46020;-55
2021/11/07 00:19:25;;;;;;;76.93;40.55;;;;;;;;;;143751;608;45020;-55
2021/11/07 00:24:44;;;;;;;84.28;41.97;;;;;;;;;;143749;564;45914;-54
2021/11/07 00:30:19;;;;;;;75.85;43.67;;;;;;;;;;143727;615;46020;-54
2021/11/07 00:38:23;;;;;;;66.47;36.08;;;;;;;;;;143726;565;46020;-55
2021/11/07 00:43:43;;;;;;;84.72;39.85;;;;;;;;;;143726;583;46025;-54
2021/11/07 00:46:25;;;;;;;75.15;39.83;;;;;;;;;;143728;564;46010;-55
2021/11/07 00:49:03;;;;;;;67.03;34.88;;;;;;;;;;143723;611;46020;-54
2021/11/07 00:54:29;;;;;;;60.63;35.85;;;;;;;;;;143719;611;46022;-54
2021/11/07 00:57:03;;;;;;;65.32;35.15;;;;;;;;;;143724;651;47011;-55
2021/11/07 00:59:36;;;;;;;74.87;40.17;;;;;;;;;;143726;599;46020;-56
2021/11/07 01:02:21;;;;;;;71.32;37.85;;;;;;;;;;143726;578;46020;-54
2021/11/07 01:04:49;;;;;;;80.95;41.13;;;;;;;;;;143725;608;47021;-55
2021/11/07 01:07:18;;;;;;;72.03;39.70;;;;;;;;;;143724;589;47010;-55
2021/11/07 01:09:45;;;;;;;86.03;43.53;;;;;;;;;;143723;569;46020;-55
2021/11/07 01:12:12;;;;;;;62.05;34.17;;;;;;;;;;143727;624;46021;-55
2021/11/07 01:14:40;;;;;;;62.50;36.58;;;;;;;;;;143724;576;47023;-55
2021/11/07 01:17:07;;;;;;;69.55;36.85;;;;;;;;;;143724;569;47010;-55
2021/11/07 01:19:34;;;;;;;76.45;41.53;;;;;;;;;;143719;580;46020;-55
2021/11/07 01:22:03;;;;;;;57.60;31.30;;;;;;;;;;143721;577;46020;-55
2021/11/07 01:24:37;;;;;;;65.07;34.75;;;;;;;;;;143724;603;47020;-55
2021/11/07 01:30:01;;;;;;;;;;;;;;;;;;143730;982;46022;-55
2021/11/07 01:32:35;;;;;;;84.62;43.72;;;;;;;;;;143733;573;46020;-55
2021/11/07 01:35:15;;;;;;;76.30;42.85;;;;;;;;;;143727;564;47020;-55
2021/11/07 01:37:56;;;;;;;52.42;30.90;;;;;;;;;;143722;607;47010;-55
2021/11/07 01:40:30;;;;;;;70.40;39.83;;;;;;;;;;143724;579;47020;-56
2021/11/07 01:42:59;;;;;;;54.42;29.60;;;;;;;;;;143728;609;46021;-55
2021/11/07 01:45:34;;;;;;;62.50;33.92;;;;;;;;;;143718;600;47022;-55
2021/11/07 01:48:12;;;;;;;64.62;36.88;;;;;;;;;;143723;573;47010;-55
2021/11/07 01:50:44;;;;;;;78.00;42.45;;;;;;;;;;143722;589;46021;-55
2021/11/07 01:53:26;;;;;;;57.33;30.88;;;;;;;;;;143725;605;46020;-55
2021/11/07 01:55:56;;;;;;;59.75;33.20;;;;;;;;;;143725;586;47021;-56
2021/11/07 01:58:28;;;;;;;60.00;36.97;;;;;;;;;;143725;618;47010;-55
2021/11/07 02:00:55;;;;;;;69.00;38.42;;;;;;;;;;143725;582;46020;-55
2021/11/07 02:03:24;;;;;;;69.03;37.67;;;;;;;;;;143727;594;46034;-55
2021/11/07 02:05:52;;;;;;;72.40;41.78;;;;;;;;;;143725;647;47020;-55
2021/11/07 02:08:20;;;;;;;72.37;43.20;;;;;;;;;;143723;605;47010;-55
2021/11/07 02:10:49;;;;;;;70.47;40.85;;;;;;;;;;143717;571;46021;-55
2021/11/07 02:13:17;;;;;;;54.58;34.40;;;;;;;;;;143727;609;47010;-56
2021/11/07 02:15:44;;;;;;;73.05;41.85;;;;;;;;;;143724;606;46022;-54
2021/11/07 02:18:11;;;;;;;82.93;44.92;;;;;;;;;;143724;565;47010;-55
2021/11/07 02:20:41;;;;;;;64.03;37.30;;;;;;;;;;143725;587;46021;-54
2021/11/07 02:23:11;;;;;;;59.90;36.22;;;;;;;;;;143727;622;46020;-55
2021/11/07 02:25:40;;;;;;;68.35;40.65;;;;;;;;;;143722;569;47022;-55
2021/11/07 02:28:08;;;;;;;71.95;39.22;;;;;;;;;;143724;601;47010;-55
2021/11/07 02:30:37;;;;;;;53.60;30.02;;;;;;;;;;143724;587;46020;-54
2021/11/07 02:33:04;;;;;;;67.45;37.15;;;;;;;;;;143728;606;46020;-55
2021/11/07 02:35:33;;;;;;;68.93;39.58;;;;;;;;;;143717;589;47023;-55
2021/11/07 02:38:00;;;;;;;48.22;29.67;;;;;;;;;;143725;569;47010;-56
2021/11/07 02:40:28;;;;;;;55.20;32.20;;;;;;;;;;143724;578;46020;-55
2021/11/07 02:42:56;;;;;;;72.53;41.67;;;;;;;;;;143733;581;46021;-54
2021/11/07 02:45:23;;;;;;;83.28;44.13;;;;;;;;;;143725;642;47020;-55
2021/11/07 02:47:50;;;;;;;84.45;46.40;;;;;;;;;;143728;591;46013;-55
2021/11/07 02:50:20;;;;;;;66.03;37.92;;;;;;;;;;143721;600;46020;-55
2021/11/07 02:52:49;;;;;;;66.87;38.05;;;;;;;;;;143726;641;46020;-55
2021/11/07 02:55:17;;;;;;;60.38;34.45;;;;;;;;;;143723;611;47022;-55
2021/11/07 02:57:47;;;;;;;53.85;32.17;;;;;;;;;;143725;581;47010;-55
2021/11/07 03:00:17;;;;;;;49.90;31.65;;;;;;;;;;143718;609;47020;-54
2021/11/07 03:02:44;;;;;;;53.38;34.17;;;;;;;;;;143726;622;47010;-55
2021/11/07 03:05:12;;;;;;;82.18;45.50;;;;;;;;;;143724;601;47020;-56
2021/11/07 03:07:45;;;;;;;76.70;42.88;;;;;;;;;;143728;592;46012;-56
2021/11/07 03:10:15;;;;;;;73.10;43.90;;;;;;;;;;143724;643;46909;-56
2021/11/07 03:12:42;;;;;;;65.90;39.00;;;;;;;;;;143726;587;47018;-55
2021/11/07 03:15:12;;;;;;;69.55;37.97;;;;;;;;;;143726;593;46022;-56
2021/11/07 03:17:40;;;;;;;75.15;43.10;;;;;;;;;;143725;604;46020;-55
2021/11/07 03:20:09;;;;;;;78.20;45.85;;;;;;;;;;143725;596;47020;-56
2021/11/07 03:22:37;;;;;;;89.85;48.87;;;;;;;;;;143729;573;46020;-56
2021/11/07 03:25:04;;;;;;;77.55;42.83;;;;;;;;;;143720;616;46022;-55
2021/11/07 03:27:41;;;;;;;69.32;37.90;;;;;;;;;;143726;583;46014;-55
2021/11/07 03:30:58;;;;;;;96.53;52.92;;;;;;;;;;143726;565;46020;-54
2021/11/07 03:33:29;;;;;;;83.85;44.90;;;;;;;;;;143727;582;46023;-54
2021/11/07 03:36:00;;;;;;;65.35;40.40;;;;;;;;;;143727;605;46022;-55
2021/11/07 03:38:27;;;;;;;75.35;43.87;;;;;;;;;;143728;586;46012;-55
2021/11/07 03:40:54;;;;;;;70.40;39.95;;;;;;;;;;143727;605;46021;-55
2021/11/07 03:43:25;;;;;;;75.70;42.97;;;;;;;;;;143728;689;46020;-55
2021/11/07 03:45:53;;;;;;;78.45;44.20;;;;;;;;;;143722;574;47020;-55
2021/11/07 03:48:22;;;;;;;83.97;45.20;;;;;;;;;;143724;585;47011;-55
2021/11/07 03:50:49;;;;;;;98.20;52.58;;;;;;;;;;143719;601;46020;-54
2021/11/07 03:53:17;;;;;;;105.45;54.67;;;;;;;;;;143728;586;46029;-55
2021/11/07 03:55:45;;;;;;;113.57;58.17;;;;;;;;;;143724;573;47020;-55
2021/11/07 03:58:12;;;;;;;97.20;52.58;;;;;;;;;;143725;579;47010;-55
2021/11/07 04:00:39;;;;;;;111.75;56.03;;;;;;;;;;143726;566;46020;-55
2021/11/07 04:03:07;;;;;;;112.15;57.25;;;;;;;;;;143726;583;47012;-55
2021/11/07 04:05:35;;;;;;;85.47;45.35;;;;;;;;;;143726;579;47020;-55
2021/11/07 04:08:03;;;;;;;130.63;59.75;;;;;;;;;;143724;613;47010;-55
2021/11/07 04:10:30;;;;;;;127.65;64.28;;;;;;;;;;143724;604;46020;-55
2021/11/07 04:12:57;;;;;;;147.02;70.55;;;;;;;;;;143719;598;47010;-55
2021/11/07 04:15:25;;;;;;;134.80;61.55;;;;;;;;;;143722;569;46022;-55
2021/11/07 04:17:53;;;;;;;128.52;56.35;;;;;;;;;;143728;586;46010;-55
2021/11/07 04:20:20;;;;;;;128.60;61.05;;;;;;;;;;143722;588;46020;-55
2021/11/07 04:22:47;;;;;;;110.50;56.10;;;;;;;;;;143728;590;46020;-55
2021/11/07 04:25:15;;;;;;;142.05;66.68;;;;;;;;;;143727;564;46022;-55
2021/11/07 04:27:42;;;;;;;120.32;57.22;;;;;;;;;;143726;585;46010;-55
2021/11/07 04:30:12;;;;;;;138.15;66.40;;;;;;;;;;143725;607;46020;-55
2021/11/07 04:32:41;;;;;;;143.50;64.00;;;;;;;;;;143727;586;46020;-55
2021/11/07 04:35:09;;;;;;;144.43;63.63;;;;;;;;;;143726;565;46023;-55
2021/11/07 04:37:39;;;;;;;162.93;69.93;;;;;;;;;;143725;585;46915;-55
2021/11/07 04:40:08;;;;;;;126.62;58.50;;;;;;;;;;143720;611;46020;-55
2021/11/07 04:42:35;;;;;;;122.70;54.63;;;;;;;;;;143726;565;46021;-55
2021/11/07 04:45:03;;;;;;;152.38;67.20;;;;;;;;;;143726;564;47022;-55
2021/11/07 04:47:31;;;;;;;171.02;74.40;;;;;;;;;;143729;573;45915;-55
2021/11/07 04:49:58;;;;;;;109.82;54.13;;;;;;;;;;143724;577;46020;-55
2021/11/07 04:52:27;;;;;;;153.52;66.50;;;;;;;;;;143727;569;46020;-55
2021/11/07 04:54:54;;;;;;;158.25;74.12;;;;;;;;;;143726;588;46022;-55
2021/11/07 04:57:21;;;;;;;148.55;71.30;;;;;;;;;;143725;598;46012;-55
2021/11/07 04:59:49;;;;;;;112.32;57.30;;;;;;;;;;143723;585;47020;-55
2021/11/07 05:02:16;;;;;;;125.93;65.53;;;;;;;;;;143730;595;46020;-55
2021/11/07 05:04:43;;;;;;;137.35;65.68;;;;;;;;;;143717;564;47020;-55
2021/11/07 05:07:10;;;;;;;133.80;68.47;;;;;;;;;;143728;564;46012;-55
2021/11/07 05:09:38;;;;;;;120.00;61.05;;;;;;;;;;143724;628;46020;-55
2021/11/07 05:12:05;;;;;;;117.35;58.00;;;;;;;;;;143727;582;46020;-55
2021/11/07 05:14:33;;;;;;;124.22;62.30;;;;;;;;;;143725;569;46022;-55
2021/11/07 05:17:00;;;;;;;110.88;55.15;;;;;;;;;;143728;611;46915;-55
2021/11/07 05:19:28;;;;;;;108.78;51.88;;;;;;;;;;143724;570;46021;-55
2021/11/07 05:21:55;;;;;;;129.93;75.95;;;;;;;;;;143725;572;47020;-55
2021/11/07 05:24:22;;;;;;;135.95;80.18;;;;;;;;;;143726;611;47021;-55
2021/11/07 05:26:49;;;;;;;119.18;67.43;;;;;;;;;;143725;592;47010;-55
2021/11/07 05:29:16;;;;;;;121.90;73.90;;;;;;;;;;143720;578;46020;-54
2021/11/07 05:31:43;;;;;;;134.27;83.78;;;;;;;;;;143727;585;47012;-55
2021/11/07 05:34:10;;;;;;;130.52;88.37;;;;;;;;;;143726;591;47020;-54
2021/11/07 05:36:41;;;;;;;117.65;69.45;;;;;;;;;;143723;583;47010;-54
2021/11/07 05:39:08;;;;;;;123.68;71.97;;;;;;;;;;143725;624;46020;-54
2021/11/07 05:41:35;;;;;;;131.57;65.43;;;;;;;;;;143729;573;46021;-55
2021/11/07 05:44:02;;;;;;;136.90;63.38;;;;;;;;;;143726;595;47020;-54
2021/11/07 05:46:29;;;;;;;145.70;64.87;;;;;;;;;;143724;612;47011;-54
2021/11/07 05:48:57;;;;;;;115.07;60.40;;;;;;;;;;143723;580;46021;-55
2021/11/07 05:51:24;;;;;;;123.55;66.47;;;;;;;;;;143721;616;46020;-55
2021/11/07 05:53:51;;;;;;;134.32;74.07;;;;;;;;;;143717;638;47021;-55
2021/11/07 05:56:18;;;;;;;127.68;71.62;;;;;;;;;;143720;596;47010;-55
2021/11/07 05:58:46;;;;;;;151.43;77.65;;;;;;;;;;143723;581;46020;-54
2021/11/07 06:01:13;;;;;;;131.77;65.18;;;;;;;;;;143726;572;47013;-54
2021/11/07 06:03:39;;;;;;;119.22;61.37;;;;;;;;;;143728;606;46023;-55
2021/11/07 06:06:06;;;;;;;125.40;63.42;;;;;;;;;;143725;734;47010;-54
2021/11/07 06:08:34;;;;;;;123.28;62.05;;;;;;;;;;143725;624;46020;-54
2021/11/07 06:11:01;;;;;;;112.88;60.95;;;;;;;;;;143729;604;46021;-55
2021/11/07 06:13:28;;;;;;;116.95;59.97;;;;;;;;;;143725;582;47022;-55
2021/11/07 06:15:55;;;;;;;103.70;56.45;;;;;;;;;;143723;633;47011;-54
2021/11/07 06:18:23;;;;;;;99.70;53.92;;;;;;;;;;143720;569;46021;-55
2021/11/07 06:20:50;;;;;;;97.85;53.05;;;;;;;;;;143729;590;46020;-55
2021/11/07 06:23:17;;;;;;;95.95;54.38;;;;;;;;;;143726;566;47021;-55
2021/11/07 06:25:44;;;;;;;102.50;52.10;;;;;;;;;;143726;594;47010;-55
2021/11/07 06:28:11;;;;;;;104.35;51.10;;;;;;;;;;143726;618;46020;-55
2021/11/07 06:30:38;;;;;;;103.87;51.95;;;;;;;;;;143728;615;47012;-56
2021/11/07 06:33:05;;;;;;;101.10;54.10;;;;;;;;;;143725;606;47021;-55
2021/11/07 06:35:33;;;;;;;100.35;52.72;;;;;;;;;;143724;611;47010;-55
2021/11/07 06:38:00;;;;;;;107.05;54.65;;;;;;;;;;143726;569;46020;-55
2021/11/07 06:40:27;;;;;;;103.12;53.42;;;;;;;;;;143730;589;46021;-56
2021/11/07 06:42:54;;;;;;;102.57;55.05;;;;;;;;;;143718;586;47020;-55
2021/11/07 06:45:22;;;;;;;102.43;54.33;;;;;;;;;;143720;578;47011;-56
2021/11/07 06:47:49;;;;;;;109.22;57.38;;;;;;;;;;143723;574;46021;-57
2021/11/07 06:50:16;;;;;;;116.18;58.65;;;;;;;;;;143728;603;46020;-56
2021/11/07 06:52:44;;;;;;;111.68;60.60;;;;;;;;;;143724;566;47022;-56
2021/11/07 06:55:12;;;;;;;94.18;51.85;;;;;;;;;;143723;580;47010;-56
2021/11/07 06:57:40;;;;;;;105.47;57.20;;;;;;;;;;143725;589;46020;-55
2021/11/07 07:00:14;;;;;;;103.87;56.13;;;;;;;;;;143731;596;46020;-56
2021/11/07 07:02:41;;;;;;;127.62;65.85;;;;;;;;;;143727;565;47021;-56
2021/11/07 07:05:13;;;;;;;107.28;56.63;;;;;;;;;;143726;647;47010;-55
2021/11/07 07:07:47;;;;;;;125.38;68.25;;;;;;;;;;143722;622;46020;-56
2021/11/07 07:13:09;;;;;;;121.13;61.67;;;;;;;;;;143727;570;46024;-56
2021/11/07 07:15:42;;;;;;;105.82;55.80;;;;;;;;;;143726;585;47016;-56
2021/11/07 07:21:13;;;;;;;121.93;63.58;;;;;;;;;;143724;623;46022;-56
2021/11/07 07:26:49;;;;;;;99.93;56.15;;;;;;;;;;143727;573;45916;-56
2021/11/07 07:34:50;;;;;;;86.12;50.67;;;;;;;;;;143746;633;46050;-56
2021/11/07 07:37:18;;;;;;;82.20;48.20;;;;;;;;;;143751;569;46010;-57
2021/11/07 07:39:45;;;;;;;76.90;45.12;;;;;;;;;;143751;591;44911;-55
2021/11/07 07:42:12;;;;;;;77.60;45.75;;;;;;;;;;143754;569;45020;-56
2021/11/07 07:44:39;;;;;;;77.22;45.03;;;;;;;;;;143755;581;46021;-56
2021/11/07 07:47:06;;;;;;;71.40;41.08;;;;;;;;;;143751;873;46011;-56
2021/11/07 07:49:34;;;;;;;69.90;40.47;;;;;;;;;;143753;633;45020;-56
2021/11/07 07:52:01;;;;;;;67.32;40.28;;;;;;;;;;143756;613;45020;-56
2021/11/07 07:54:27;;;;;;;62.85;41.67;;;;;;;;;;143756;582;45023;-56
2021/11/07 07:56:55;;;;;;;61.53;40.60;;;;;;;;;;143752;882;46020;-56
2021/11/07 07:59:22;;;;;;;54.42;35.25;;;;;;;;;;143752;564;44911;-56
2021/11/07 08:01:49;;;;;;;56.80;36.35;;;;;;;;;;143752;603;45021;-55
2021/11/07 08:04:15;;;;;;;62.42;38.45;;;;;;;;;;143755;576;45022;-56
2021/11/07 08:06:42;;;;;;;63.47;38.35;;;;;;;;;;143748;597;46010;-56
2021/11/07 08:09:09;;;;;;;69.75;41.28;;;;;;;;;;143751;629;45021;-55
2021/11/07 08:11:38;;;;;;;73.82;43.47;;;;;;;;;;143754;613;45020;-56
2021/11/07 08:14:05;;;;;;;72.22;43.28;;;;;;;;;;143750;579;46020;-55
2021/11/07 08:16:32;;;;;;;88.55;50.40;;;;;;;;;;143751;569;46010;-56
2021/11/07 08:18:59;;;;;;;87.78;50.53;;;;;;;;;;143751;612;45020;-54
2021/11/07 08:21:30;;;;;;;87.45;49.70;;;;;;;;;;143752;572;45020;-55
2021/11/07 08:23:57;;;;;;;76.50;47.75;;;;;;;;;;143749;598;46029;-55
2021/11/07 08:26:24;;;;;;;89.07;50.65;;;;;;;;;;143751;576;46010;-56
2021/11/07 08:28:53;;;;;;;81.07;47.00;;;;;;;;;;143732;569;45911;-55
2021/11/07 08:31:24;;;;;;;85.40;49.88;;;;;;;;;;143730;570;46020;-56
2021/11/07 08:33:52;;;;;;;84.35;47.65;;;;;;;;;;143727;592;47020;-55
2021/11/07 08:36:22;;;;;;;76.78;49.25;;;;;;;;;;143727;606;47010;-56
2021/11/07 08:38:55;;;;;;;79.80;45.63;;;;;;;;;;143727;627;46020;-55
2021/11/07 08:41:23;;;;;;;69.12;44.10;;;;;;;;;;143730;594;46020;-55
2021/11/07 09:00:29;;;;;;;63.85;42.38;;;;;;;;;;143727;593;47010;-56
2021/11/07 09:03:14;;;;;;;71.15;45.50;;;;;;;;;;143730;575;46018;-55
2021/11/07 09:08:27;;;;;;;80.45;50.55;;;;;;;;;;143725;594;47011;-54
2021/11/07 09:10:55;;;;;;;90.40;52.50;;;;;;;;;;143726;626;46020;-55
2021/11/07 09:13:22;;;;;;;80.97;48.67;;;;;;;;;;143727;588;46020;-54
2021/11/07 09:15:51;;;;;;;85.40;50.78;;;;;;;;;;143720;565;47021;-55
2021/11/07 09:18:18;;;;;;;108.22;62.42;;;;;;;;;;143725;640;47010;-55
2021/11/07 09:23:47;;;;;;;72.18;47.83;;;;;;;;;;143728;566;47010;-54
2021/11/07 09:26:28;;;;;;;74.62;45.85;;;;;;;;;;143727;572;47020;-53
2021/11/07 09:29:00;;;;;;;86.95;50.78;;;;;;;;;;143740;584;46917;-54
2021/11/07 09:31:38;;;;;;;77.75;49.20;;;;;;;;;;143749;590;45911;-55
2021/11/07 09:34:13;;;;;;;61.17;40.75;;;;;;;;;;143758;591;45020;-56
2021/11/07 09:36:56;;;;;;;58.22;39.65;;;;;;;;;;143751;588;46022;-54
2021/11/07 09:45:18;;;;;;;55.42;38.00;;;;;;;;;;143751;625;45022;-55
2021/11/07 09:47:50;;;;;;;56.83;39.97;;;;;;;;;;143748;578;46023;-56
2021/11/07 09:50:18;;;;;;;51.47;37.83;;;;;;;;;;143750;578;46010;-56
2021/11/07 09:52:48;;;;;;;49.40;36.22;;;;;;;;;;143754;569;45911;-55
2021/11/07 09:55:18;;;;;;;49.72;36.40;;;;;;;;;;143754;575;45020;-55
2021/11/07 09:57:45;;;;;;;48.75;35.90;;;;;;;;;;143749;580;46020;-56
2021/11/07 10:00:17;;;;;;;46.63;33.38;;;;;;;;;;143754;581;46011;-56
2021/11/07 10:02:45;;;;;;;45.55;33.15;;;;;;;;;;143752;639;44910;-56
2021/11/07 10:05:13;;;;;;;52.67;35.10;;;;;;;;;;143752;569;45020;-56
2021/11/07 10:07:42;;;;;;;41.25;33.78;;;;;;;;;;143751;576;46021;-56
2021/11/07 10:10:23;;;;;;;48.72;32.10;;;;;;;;;;143752;570;46010;-56
2021/11/07 10:12:52;;;;;;;40.83;31.98;;;;;;;;;;143754;628;44911;-57
2021/11/07 10:15:46;;;;;;;41.95;31.37;;;;;;;;;;143752;635;45020;-57
2021/11/07 10:18:37;;;;;;;38.47;29.42;;;;;;;;;;143751;655;46020;-55
2021/11/07 10:21:19;;;;;;;44.35;29.98;;;;;;;;;;143744;584;47010;-56
2021/11/07 10:24:01;;;;;;;40.88;29.40;;;;;;;;;;143751;609;45909;-56
2021/11/07 10:26:41;;;;;;;39.83;29.95;;;;;;;;;;143751;633;46010;-56
2021/11/07 10:29:20;;;;;;;42.03;29.80;;;;;;;;;;143729;586;47020;-57
2021/11/07 10:31:55;;;;;;;40.30;27.20;;;;;;;;;;143726;585;47010;-57
2021/11/07 10:34:50;;;;;;;33.13;25.55;;;;;;;;;;143722;586;46020;-58
2021/11/07 10:40:40;;;;;;;39.60;26.05;;;;;;;;;;143726;585;46023;-56
2021/11/07 10:43:29;;;;;;;38.95;25.40;;;;;;;;;;143726;591;47010;-57
2021/11/07 10:46:16;;;;;;;38.67;26.25;;;;;;;;;;143725;570;46021;-55
2021/11/07 10:54:28;;;;;;;;;;;;;;;;;;143731;981;47010;-56
2021/11/07 10:57:39;;;;;;;32.25;23.15;;;;;;;;;;143731;593;46020;-56
2021/11/07 11:00:40;;;;;;;36.35;23.65;;;;;;;;;;143729;741;46020;-57
2021/11/07 11:03:16;;;;;;;29.37;20.92;;;;;;;;;;143719;595;47020;-58
2021/11/07 11:06:08;;;;;;;32.53;21.45;;;;;;;;;;143729;658;46020;-55
2021/11/07 11:08:47;;;;;;;44.00;30.35;;;;;;;;;;143725;589;47018;-57
2021/11/07 11:11:31;;;;;;;56.15;39.22;;;;;;;;;;143729;592;46020;-57
2021/11/07 11:14:11;;;;;;;37.88;27.40;;;;;;;;;;143726;712;48020;-55
2021/11/07 11:16:56;;;;;;;51.67;38.72;;;;;;;;;;143727;717;47010;-56
2021/11/07 11:25:32;;;;;;;38.63;25.70;;;;;;;;;;143730;587;46022;-55
2021/11/07 11:28:12;;;;;;;44.80;30.77;;;;;;;;;;143732;573;46917;-56
2021/11/07 11:31:03;;;;;;;44.90;32.90;;;;;;;;;;143750;651;45021;-56
2021/11/07 11:33:40;;;;;;;39.95;30.58;;;;;;;;;;143750;673;46020;-56
2021/11/07 11:36:20;;;;;;;40.55;26.27;;;;;;;;;;143747;583;46022;-56
2021/11/07 11:38:53;;;;;;;37.13;27.65;;;;;;;;;;143738;595;46010;-56
2021/11/07 11:41:24;;;;;;;43.95;31.62;;;;;;;;;;143752;655;44908;-56
2021/11/07 11:43:53;;;;;;;38.15;30.48;;;;;;;;;;143750;580;45020;-55
2021/11/07 11:46:47;;;;;;;46.47;30.80;;;;;;;;;;143749;585;46020;-56
2021/11/07 12:00:50;;;;;;;;;;;;;;;;;;143755;981;46008;-55
2021/11/07 12:06:44;;;;;;;31.70;21.58;;;;;;;;;;143755;573;45020;-54
2021/11/07 12:09:34;;;;;;;30.10;17.35;;;;;;;;;;143736;593;46048;-55
2021/11/07 12:15:15;;;;;;;30.30;19.77;;;;;;;;;;143750;575;45907;-54
2021/11/07 12:17:46;;;;;;;32.22;20.70;;;;;;;;;;143750;574;45020;-54
2021/11/07 12:20:27;;;;;;;27.87;20.88;;;;;;;;;;143751;585;46022;-55
2021/11/07 12:23:18;;;;;;;27.87;17.73;;;;;;;;;;143745;564;46010;-55
2021/11/07 12:25:47;;;;;;;25.90;15.60;;;;;;;;;;143749;587;45020;-55
2021/11/07 12:28:15;;;;;;;29.33;18.85;;;;;;;;;;143737;648;46011;-55
2021/11/07 12:30:43;;;;;;;20.85;15.68;;;;;;;;;;143726;575;47020;-55
2021/11/07 12:33:18;;;;;;;28.27;18.50;;;;;;;;;;143726;628;46010;-55
2021/11/07 12:36:04;;;;;;;23.42;14.63;;;;;;;;;;143724;661;46909;-55
2021/11/07 12:41:25;;;;;;;28.62;14.80;;;;;;;;;;143726;619;47022;-55
2021/11/07 12:44:05;;;;;;;26.67;15.80;;;;;;;;;;143724;587;47011;-55
2021/11/07 12:46:54;;;;;;;26.73;14.38;;;;;;;;;;143725;592;46020;-55
2021/11/07 12:49:30;;;;;;;30.60;17.52;;;;;;;;;;143728;582;46022;-55
2021/11/07 12:52:25;;;;;;;33.85;21.45;;;;;;;;;;143718;615;47021;-55
2021/11/07 12:54:52;;;;;;;30.33;19.20;;;;;;;;;;143723;571;47010;-55
2021/11/07 12:57:24;;;;;;;29.37;19.20;;;;;;;;;;143725;643;47020;-55
2021/11/07 12:59:54;;;;;;;28.23;20.02;;;;;;;;;;143727;587;47010;-54
2021/11/07 13:02:28;;;;;;;30.55;22.15;;;;;;;;;;143724;589;47022;-54
2021/11/07 13:05:18;;;;;;;36.22;21.08;;;;;;;;;;143724;571;47010;-55
2021/11/07 13:08:01;;;;;;;31.85;21.60;;;;;;;;;;143724;580;46021;-55
2021/11/07 13:13:50;;;;;;;30.35;21.87;;;;;;;;;;143726;595;46024;-55
2021/11/07 13:25:06;;;;;;;30.30;20.98;;;;;;;;;;143726;619;46030;-55
2021/11/07 13:27:41;;;;;;;30.20;21.08;;;;;;;;;;143726;583;45917;-54
2021/11/07 13:30:16;;;;;;;37.55;21.30;;;;;;;;;;143721;579;46911;-55
2021/11/07 13:32:43;;;;;;;27.20;19.98;;;;;;;;;;143728;615;46020;-54
2021/11/07 13:35:18;;;;;;;28.83;20.75;;;;;;;;;;143724;620;47021;-55
2021/11/07 13:37:52;;;;;;;25.33;20.12;;;;;;;;;;143727;565;46020;-55
2021/11/07 13:40:33;;;;;;;28.75;21.37;;;;;;;;;;143722;585;46020;-55
2021/11/07 13:43:15;;;;;;;31.85;21.70;;;;;;;;;;143724;607;47011;-55
2021/11/07 13:45:49;;;;;;;29.17;20.80;;;;;;;;;;143717;731;47022;-56
2021/11/07 13:48:22;;;;;;;29.17;20.58;;;;;;;;;;143727;586;46917;-55
2021/11/07 13:50:52;;;;;;;30.12;21.05;;;;;;;;;;143724;573;46020;-55
2021/11/07 13:53:24;;;;;;;31.62;21.90;;;;;;;;;;143728;578;46020;-55
2021/11/07 13:55:53;;;;;;;29.73;22.42;;;;;;;;;;143725;583;47020;-54
2021/11/07 13:58:26;;;;;;;27.10;19.98;;;;;;;;;;143723;596;47010;-55
2021/11/07 14:00:57;;;;;;;29.00;22.00;;;;;;;;;;143723;593;46020;-55
2021/11/07 14:03:24;;;;;;;29.30;22.17;;;;;;;;;;143726;564;46020;-55
2021/11/07 14:06:02;;;;;;;34.65;22.37;;;;;;;;;;143727;574;46022;-55
2021/11/07 14:08:43;;;;;;;33.65;23.08;;;;;;;;;;143727;599;46917;-55
2021/11/07 14:11:10;;;;;;;31.87;23.70;;;;;;;;;;143721;625;46020;-55
2021/11/07 14:13:46;;;;;;;34.78;23.30;;;;;;;;;;143729;613;46021;-55
2021/11/07 14:16:28;;;;;;;33.88;21.95;;;;;;;;;;143724;621;46022;-55
2021/11/07 14:18:55;;;;;;;29.73;22.75;;;;;;;;;;143726;615;46011;-55
2021/11/07 14:21:26;;;;;;;36.28;21.92;;;;;;;;;;143723;630;46021;-55
2021/11/07 14:24:05;;;;;;;30.55;21.87;;;;;;;;;;143726;607;46020;-55
2021/11/07 14:26:41;;;;;;;30.45;23.02;;;;;;;;;;143723;570;47022;-55
2021/11/07 14:29:22;;;;;;;31.90;22.35;;;;;;;;;;143726;565;46010;-55
2021/11/07 14:32:08;;;;;;;35.90;23.30;;;;;;;;;;143725;630;46911;-55
2021/11/07 14:34:45;;;;;;;29.33;22.25;;;;;;;;;;143727;597;46020;-55
2021/11/07 14:37:25;;;;;;;34.17;22.65;;;;;;;;;;143720;600;47023;-55
2021/11/07 14:43:28;;;;;;;31.35;21.87;;;;;;;;;;143726;606;47021;-55
2021/11/07 14:57:37;;;;;;;38.75;26.37;;;;;;;;;;143726;581;47020;-55
2021/11/07 15:00:17;;;;;;;32.03;24.10;;;;;;;;;;143724;600;47020;-55
2021/11/07 15:02:52;;;;;;;35.25;24.30;;;;;;;;;;143724;600;46917;-55
2021/11/07 15:05:38;;;;;;;31.67;22.62;;;;;;;;;;143718;740;47020;-56
2021/11/07 15:08:31;;;;;;;43.55;26.75;;;;;;;;;;143720;590;48020;-55
2021/11/07 15:11:09;;;;;;;39.40;28.20;;;;;;;;;;143726;568;47020;-55
2021/11/07 15:13:54;;;;;;;32.50;25.33;;;;;;;;;;143727;567;46021;-55
2021/11/07 15:16:29;;;;;;;35.92;25.58;;;;;;;;;;143724;564;46020;-55
2021/11/07 15:19:06;;;;;;;44.28;29.55;;;;;;;;;;143728;593;46020;-55
2021/11/07 15:21:45;;;;;;;48.95;29.95;;;;;;;;;;143724;569;47021;-55
2021/11/07 15:24:44;;;;;;;46.47;29.75;;;;;;;;;;143729;596;45916;-55
2021/11/07 15:27:18;;;;;;;38.20;27.87;;;;;;;;;;143724;585;46022;-56
2021/11/07 15:29:55;;;;;;;38.15;26.02;;;;;;;;;;143731;627;47010;-56
2021/11/07 15:32:26;;;;;;;47.58;30.15;;;;;;;;;;143717;627;47020;-55
2021/11/07 15:34:53;;;;;;;40.88;28.40;;;;;;;;;;143725;595;47031;-55
2021/11/07 15:37:30;;;;;;;41.80;28.83;;;;;;;;;;143725;646;46020;-55
2021/11/07 15:40:00;;;;;;;39.88;28.85;;;;;;;;;;143727;632;46020;-55
2021/11/07 15:42:34;;;;;;;35.15;27.95;;;;;;;;;;143726;671;46022;-55
2021/11/07 15:45:16;;;;;;;45.25;32.47;;;;;;;;;;143724;634;47010;-55
2021/11/07 15:50:41;;;;;;;40.53;30.75;;;;;;;;;;143726;591;46023;-55
2021/11/07 15:53:23;;;;;;;57.05;32.55;;;;;;;;;;143726;589;47022;-56
2021/11/07 16:01:44;;;;;;;41.67;30.25;;;;;;;;;;143728;601;46022;-56
2021/11/07 16:04:40;;;;;;;39.40;29.50;;;;;;;;;;143725;605;47021;-55
2021/11/07 16:07:18;;;;;;;49.47;31.70;;;;;;;;;;143721;615;47010;-56
2021/11/07 16:12:38;;;;;;;52.45;32.83;;;;;;;;;;143725;580;46020;-56
2021/11/07 16:17:58;;;;;;;51.88;35.33;;;;;;;;;;143725;607;46914;-55
2021/11/07 16:20:26;;;;;;;48.42;32.83;;;;;;;;;;143726;673;46021;-55
2021/11/07 16:22:58;;;;;;;54.42;35.80;;;;;;;;;;143726;605;47010;-56
2021/11/07 16:25:26;;;;;;;41.47;30.42;;;;;;;;;;143718;601;47022;-55
2021/11/07 16:27:58;;;;;;;48.42;34.78;;;;;;;;;;143727;606;46010;-55
2021/11/07 16:30:27;;;;;;;49.40;32.80;;;;;;;;;;143724;579;46020;-55
2021/11/07 16:33:02;;;;;;;43.42;32.13;;;;;;;;;;143726;597;46020;-56
2021/11/07 16:35:49;;;;;;;48.92;31.35;;;;;;;;;;143725;569;47020;-56
2021/11/07 16:38:36;;;;;;;40.15;26.62;;;;;;;;;;143723;569;47010;-55
2021/11/07 16:41:08;;;;;;;36.58;26.48;;;;;;;;;;143724;566;46909;-56
2021/11/07 16:43:37;;;;;;;44.58;30.15;;;;;;;;;;143727;573;46021;-55
2021/11/07 16:46:07;;;;;;;37.30;27.17;;;;;;;;;;143724;591;47020;-56
2021/11/07 16:48:37;;;;;;;36.70;27.25;;;;;;;;;;143723;636;47011;-55
2021/11/07 16:51:11;;;;;;;45.78;30.60;;;;;;;;;;143720;577;46021;-55
2021/11/07 16:53:44;;;;;;;41.37;30.23;;;;;;;;;;143725;565;46020;-55
2021/11/07 16:56:12;;;;;;;46.13;34.20;;;;;;;;;;143725;609;47021;-55
2021/11/07 17:01:33;;;;;;;43.50;31.58;;;;;;;;;;143723;597;46020;-55
2021/11/07 17:04:10;;;;;;;46.00;32.38;;;;;;;;;;143727;569;46020;-55
2021/11/07 17:09:42;;;;;;;48.42;33.03;;;;;;;;;;143727;617;46010;-56
2021/11/07 17:12:30;;;;;;;53.92;34.03;;;;;;;;;;143722;596;46020;-55
2021/11/07 17:15:08;;;;;;;46.13;31.60;;;;;;;;;;143728;587;46020;-55
2021/11/07 17:26:17;;;;;;;41.88;31.12;;;;;;;;;;143728;580;46022;-56
2021/11/07 17:28:54;;;;;;;43.63;31.83;;;;;;;;;;143725;570;46023;-55